createdAt,value
2022-07-28T00:01:09.434Z,100223.09
2022-07-28T00:04:12.644Z,100234.94
2022-07-28T00:07:15.387Z,100219.63
2022-07-28T00:10:18.186Z,100216.06
2022-07-28T00:13:20.882Z,100223.56
2022-07-28T00:16:23.896Z,100221.97
2022-07-28T00:19:26.580Z,100220.22
2022-07-28T00:22:29.459Z,100215.91
2022-07-28T00:25:31.980Z,100211.84
2022-07-28T00:28:35.247Z,100208.31
2022-07-28T00:31:37.917Z,100214.56
2022-07-28T00:34:40.778Z,100211.75
2022-07-28T00:37:45.096Z,100206.94
2022-07-28T00:41:10.547Z,100198.91
2022-07-28T00:44:13.386Z,100207.81
2022-07-28T00:47:16.557Z,100198.34
2022-07-28T00:50:19.693Z,100195.94
2022-07-28T00:53:23.661Z,100201.12
2022-07-28T00:56:26.246Z,100191.62
2022-07-28T00:59:29.041Z,100196.53
2022-07-28T01:02:31.779Z,100190.97
2022-07-28T01:05:50.660Z,100193.06
2022-07-28T01:09:23.801Z,100195.53
2022-07-28T01:12:40.138Z,100198.25
2022-07-28T01:15:55.567Z,100187.31
2022-07-28T01:19:05.108Z,100202.06
2022-07-28T01:22:12.695Z,100200.66
2022-07-28T01:25:29.973Z,100200.34
2022-07-28T01:29:13.053Z,100199.59
2022-07-28T01:32:28.523Z,100190.00
2022-07-28T01:35:38.131Z,100185.66
2022-07-28T01:38:43.044Z,100188.28
2022-07-28T01:41:46.617Z,100194.34
2022-07-28T01:44:51.220Z,100194.00
2022-07-28T01:47:57.072Z,100192.38
2022-07-28T01:51:01.977Z,100193.94
2022-07-28T01:54:06.882Z,100193.84
2022-07-28T01:57:14.659Z,100191.88
2022-07-28T02:00:17.908Z,100184.28
2022-07-28T02:03:22.813Z,100184.91
2022-07-28T02:06:26.931Z,100189.31
2022-07-28T02:09:32.027Z,100193.47
2022-07-28T02:12:35.934Z,100194.88
2022-07-28T02:15:40.180Z,100192.09
2022-07-28T02:18:44.500Z,100190.44
2022-07-28T02:21:49.472Z,100184.44
2022-07-28T02:24:54.140Z,100183.91
2022-07-28T02:28:03.814Z,100181.44
2022-07-28T02:31:20.189Z,100184.28
2022-07-28T02:34:30.499Z,100176.19
2022-07-28T02:37:37.813Z,100190.88
2022-07-28T02:40:42.986Z,100188.91
2022-07-28T02:43:49.973Z,100189.03
2022-07-28T02:46:57.417Z,100198.75
2022-07-28T02:50:02.845Z,100196.75
2022-07-28T02:53:14.943Z,100201.78
2022-07-28T02:56:19.674Z,100199.28
2022-07-28T02:59:23.426Z,100217.53
2022-07-28T03:02:26.509Z,100216.66
2022-07-28T03:05:29.735Z,100217.91
2022-07-28T03:08:32.543Z,100216.66
2022-07-28T03:11:35.370Z,100217.34
2022-07-28T03:14:38.647Z,100223.06
2022-07-28T03:17:41.725Z,100227.00
2022-07-28T03:20:44.177Z,100218.50
2022-07-28T03:23:50.223Z,100211.69
2022-07-28T03:27:12.446Z,100215.34
2022-07-28T03:30:19.186Z,100215.22
2022-07-28T03:33:21.708Z,100229.12
2022-07-28T03:36:30.984Z,100229.75
2022-07-28T03:39:39.118Z,100223.94
2022-07-28T03:42:47.673Z,100227.97
2022-07-28T03:45:50.617Z,100240.13
2022-07-28T03:48:53.806Z,100237.88
2022-07-28T03:51:56.384Z,100241.81
2022-07-28T03:54:59.316Z,100244.16
2022-07-28T03:58:01.837Z,100248.38
2022-07-28T04:01:04.802Z,100254.28
2022-07-28T04:04:07.573Z,100254.94
2022-07-28T04:07:10.361Z,100260.84
2022-07-28T04:10:15.507Z,100261.41
2022-07-28T04:13:18.132Z,100268.75
2022-07-28T04:16:20.982Z,100270.50
2022-07-28T04:19:25.032Z,100263.19
2022-07-28T04:22:27.872Z,100257.72
2022-07-28T04:25:30.400Z,100265.56
2022-07-28T04:28:33.492Z,100267.78
2022-07-28T04:31:35.950Z,100257.41
2022-07-28T04:34:38.718Z,100267.31
2022-07-28T04:37:42.120Z,100261.81
2022-07-28T04:40:45.302Z,100269.97
2022-07-28T04:43:47.901Z,100274.13
2022-07-28T04:46:51.226Z,100271.78
2022-07-28T04:49:53.854Z,100276.00
2022-07-28T04:52:56.686Z,100267.81
2022-07-28T04:55:59.220Z,100274.50
2022-07-28T04:59:01.995Z,100282.94
2022-07-28T05:02:06.691Z,100278.53
2022-07-28T05:05:10.171Z,100274.47
2022-07-28T05:08:12.768Z,100275.94
2022-07-28T05:11:15.865Z,100279.12
2022-07-28T05:14:18.537Z,100280.59
2022-07-28T05:17:21.456Z,100283.78
2022-07-28T05:20:23.989Z,100293.41
2022-07-28T05:23:26.862Z,100295.41
2022-07-28T05:26:31.035Z,100281.59
2022-07-28T05:29:37.616Z,100299.59
2022-07-28T05:32:50.715Z,100303.22
2022-07-28T05:35:57.497Z,100302.38
2022-07-28T05:39:00.033Z,100305.88
2022-07-28T05:42:02.989Z,100308.72
2022-07-28T05:45:16.309Z,100317.22
2022-07-28T05:48:21.627Z,100314.63
2022-07-28T05:51:24.161Z,100317.72
2022-07-28T05:54:27.063Z,100317.06
2022-07-28T05:57:29.717Z,100327.03
2022-07-28T06:00:35.926Z,100326.97
2022-07-28T06:03:42.315Z,100327.41
2022-07-28T06:06:45.185Z,100332.97
2022-07-28T06:09:48.652Z,100337.34
2022-07-28T06:12:55.709Z,100340.00
2022-07-28T06:15:59.812Z,100345.53
2022-07-28T06:19:02.431Z,100343.56
2022-07-28T06:22:06.290Z,100344.28
2022-07-28T06:25:16.488Z,100352.00
2022-07-28T06:28:20.113Z,100348.59
2022-07-28T06:31:22.801Z,100349.56
2022-07-28T06:34:25.743Z,100349.37
2022-07-28T06:37:28.232Z,100359.06
2022-07-28T06:40:31.722Z,100355.25
2022-07-28T06:43:38.732Z,100362.53
2022-07-28T06:46:42.207Z,100356.72
2022-07-28T06:49:44.823Z,100363.34
2022-07-28T06:52:47.881Z,100361.75
2022-07-28T06:55:50.387Z,100360.78
2022-07-28T06:58:53.599Z,100367.09
2022-07-28T07:02:01.623Z,100366.66
2022-07-28T07:05:05.074Z,100359.37
2022-07-28T07:08:07.634Z,100367.03
2022-07-28T07:11:10.895Z,100368.38
2022-07-28T07:14:13.912Z,100363.19
2022-07-28T07:17:17.058Z,100362.81
2022-07-28T07:20:20.088Z,100356.41
2022-07-28T07:23:22.872Z,100362.37
2022-07-28T07:26:25.867Z,100369.63
2022-07-28T07:29:30.426Z,100367.34
2022-07-28T07:32:33.386Z,100364.72
2022-07-28T07:35:37.924Z,100372.78
2022-07-28T07:38:40.574Z,100368.44
2022-07-28T07:41:43.616Z,100371.66
2022-07-28T07:44:50.030Z,100362.00
2022-07-28T07:47:53.236Z,100364.66
2022-07-28T07:50:55.768Z,100366.84
2022-07-28T07:53:58.622Z,100368.06
2022-07-28T07:57:22.046Z,100363.13
2022-07-28T08:00:28.558Z,100369.31
2022-07-28T08:03:32.333Z,100362.66
2022-07-28T08:06:35.891Z,100362.03
2022-07-28T08:09:38.822Z,100365.34
2022-07-28T08:12:41.446Z,100363.22
2022-07-28T08:15:44.430Z,100370.75
2022-07-28T08:18:47.013Z,100370.34
2022-07-28T08:21:49.841Z,100363.03
2022-07-28T08:24:53.369Z,100365.94
2022-07-28T08:27:56.308Z,100363.53
2022-07-28T08:30:59.065Z,100362.28
2022-07-28T08:34:03.875Z,100360.94
2022-07-28T08:37:26.501Z,100362.22
2022-07-28T08:40:30.151Z,100365.44
2022-07-28T08:43:37.336Z,100360.84
2022-07-28T08:46:43.090Z,100360.28
2022-07-28T08:49:48.388Z,100363.72
2022-07-28T08:52:55.423Z,100366.78
2022-07-28T08:56:04.988Z,100372.19
2022-07-28T08:59:17.395Z,100365.28
2022-07-28T09:02:29.214Z,100363.09
2022-07-28T09:05:35.308Z,100366.13
2022-07-28T09:08:39.171Z,100365.53
2022-07-28T09:11:41.966Z,100356.22
2022-07-28T09:14:45.043Z,100349.88
2022-07-28T09:17:47.993Z,100356.16
2022-07-28T09:20:50.544Z,100350.66
2022-07-28T09:23:53.441Z,100348.63
2022-07-28T09:27:10.256Z,100351.19
2022-07-28T09:30:13.485Z,100343.28
2022-07-28T09:33:41.334Z,100342.41
2022-07-28T09:36:42.801Z,100334.44
2022-07-28T09:39:46.543Z,100331.87
2022-07-28T09:42:55.458Z,100329.56
2022-07-28T09:46:30.133Z,100332.72
2022-07-28T09:49:43.466Z,100320.72
2022-07-28T09:52:54.086Z,100333.94
2022-07-28T09:55:59.975Z,100319.94
2022-07-28T09:59:03.851Z,100327.59
2022-07-28T10:02:07.634Z,100328.50
2022-07-28T10:05:12.346Z,100319.66
2022-07-28T10:08:15.004Z,100312.00
2022-07-28T10:11:21.192Z,100313.44
2022-07-28T10:14:32.618Z,100309.50
2022-07-28T10:17:35.527Z,100302.31
2022-07-28T10:20:38.601Z,100305.37
2022-07-28T10:23:46.407Z,100303.34
2022-07-28T10:26:49.789Z,100306.53
2022-07-28T10:30:01.069Z,100299.69
2022-07-28T10:33:14.522Z,100307.00
2022-07-28T10:36:25.067Z,100298.44
2022-07-28T10:39:37.378Z,100292.47
2022-07-28T10:42:41.004Z,100301.75
2022-07-28T10:49:09.891Z,100290.25
2022-07-28T10:52:37.699Z,100284.09
2022-07-28T10:55:50.373Z,100287.00
2022-07-28T10:59:28.207Z,100292.03
2022-07-28T11:02:45.414Z,100276.38
2022-07-28T11:05:48.138Z,100278.50
2022-07-28T11:08:52.853Z,100271.78
2022-07-28T11:11:59.043Z,100258.81
2022-07-28T11:15:18.825Z,100264.03
2022-07-28T11:18:22.516Z,100251.00
2022-07-28T11:21:26.581Z,100255.53
2022-07-28T11:25:18.869Z,100253.38
2022-07-28T11:28:24.452Z,100253.19
2022-07-28T11:31:45.457Z,100250.28
2022-07-28T11:35:18.932Z,100255.91
2022-07-28T11:38:23.224Z,100249.22
2022-07-28T11:41:32.269Z,100257.91
2022-07-28T11:44:37.009Z,100249.56
2022-07-28T11:47:39.834Z,100260.13
2022-07-28T11:50:43.567Z,100246.16
2022-07-28T11:53:47.816Z,100242.91
2022-07-28T11:56:58.577Z,100230.97
2022-07-28T12:00:06.162Z,100243.47
2022-07-28T12:03:10.976Z,100243.69
2022-07-28T12:06:15.350Z,100238.34
2022-07-28T12:09:41.312Z,100238.66
2022-07-28T12:12:53.126Z,100229.00
2022-07-28T12:15:56.055Z,100224.81
2022-07-28T12:19:00.697Z,100221.66
2022-07-28T12:22:37.453Z,100216.91
2022-07-28T12:25:42.841Z,100225.81
2022-07-28T12:28:51.807Z,100226.91
2022-07-28T12:31:56.200Z,100229.63
2022-07-28T12:34:59.322Z,100218.16
2022-07-28T12:38:01.897Z,100215.53
2022-07-28T12:41:14.111Z,100223.19
2022-07-28T12:44:17.019Z,100207.50
2022-07-28T12:47:28.148Z,100208.22
2022-07-28T12:50:39.926Z,100205.22
2022-07-28T12:53:52.145Z,100202.97
2022-07-28T12:56:56.087Z,100205.03
2022-07-28T13:00:06.020Z,100204.75
2022-07-28T13:03:29.214Z,100203.00
2022-07-28T13:06:32.444Z,100188.19
2022-07-28T13:09:41.751Z,100192.09
2022-07-28T13:12:44.795Z,100197.19
2022-07-28T13:16:11.974Z,100194.53
2022-07-28T13:19:21.563Z,100182.81
2022-07-28T13:22:27.849Z,100181.62
2022-07-28T13:25:30.743Z,100184.28
2022-07-28T13:28:35.311Z,100180.81
2022-07-28T13:31:38.379Z,100180.25
2022-07-28T13:34:42.447Z,100183.50
2022-07-28T13:37:45.489Z,100182.87
2022-07-28T13:40:48.069Z,100178.81
2022-07-28T13:43:51.640Z,100177.94
2022-07-28T13:46:55.250Z,100176.31
2022-07-28T13:49:58.486Z,100174.00
2022-07-28T13:53:01.088Z,100175.87
2022-07-28T13:56:09.569Z,100165.97
2022-07-28T13:59:13.708Z,100166.84
2022-07-28T14:02:17.131Z,100159.41
2022-07-28T14:05:20.154Z,100152.41
2022-07-28T14:08:25.379Z,100151.91
2022-07-28T14:11:28.586Z,100152.66
2022-07-28T14:14:31.167Z,100161.88
2022-07-28T14:17:44.267Z,100165.59
2022-07-28T14:20:48.240Z,100163.69
2022-07-28T14:23:51.563Z,100160.03
2022-07-28T14:26:54.404Z,100149.84
2022-07-28T14:29:57.348Z,100152.22
2022-07-28T14:33:00.132Z,100140.50
2022-07-28T14:36:03.507Z,100150.22
2022-07-28T14:39:10.544Z,100143.75
2022-07-28T14:42:15.483Z,100147.50
2022-07-28T14:45:18.075Z,100145.87
2022-07-28T14:48:21.014Z,100152.47
2022-07-28T14:51:23.508Z,100138.59
2022-07-28T14:54:27.823Z,100135.53
2022-07-28T14:57:48.304Z,100138.91
2022-07-28T15:00:54.432Z,100134.47
2022-07-28T15:03:56.969Z,100137.66
2022-07-28T15:07:00.842Z,100130.22
2022-07-28T15:10:04.527Z,100125.84
2022-07-28T15:13:07.371Z,100129.69
2022-07-28T15:16:11.969Z,100132.72
2022-07-28T15:19:15.213Z,100122.41
2022-07-28T15:22:17.753Z,100134.38
2022-07-28T15:25:20.628Z,100122.41
2022-07-28T15:28:23.209Z,100129.31
2022-07-28T15:31:26.949Z,100116.28
2022-07-28T15:34:32.809Z,100119.22
2022-07-28T15:37:36.561Z,100125.56
2022-07-28T15:40:39.158Z,100117.12
2022-07-28T15:43:42.233Z,100113.81
2022-07-28T15:46:46.630Z,100112.75
2022-07-28T15:49:49.775Z,100114.50
2022-07-28T15:52:52.284Z,100108.56
2022-07-28T15:55:55.329Z,100120.22
2022-07-28T15:59:02.452Z,100106.50
2022-07-28T16:02:05.342Z,100114.56
2022-07-28T16:05:08.544Z,100113.44
2022-07-28T16:08:11.378Z,100125.97
2022-07-28T16:11:14.346Z,100113.88
2022-07-28T16:14:17.969Z,100112.88
2022-07-28T16:17:22.742Z,100114.00
2022-07-28T16:20:25.359Z,100105.25
2022-07-28T16:23:28.238Z,100110.75
2022-07-28T16:26:30.726Z,100111.56
2022-07-28T16:29:33.477Z,100114.91
2022-07-28T16:32:36.051Z,100114.00
2022-07-28T16:35:38.824Z,100112.25
2022-07-28T16:38:41.410Z,100109.72
2022-07-28T16:41:46.957Z,100114.38
2022-07-28T16:44:51.873Z,100118.25
2022-07-28T16:47:55.224Z,100114.91
2022-07-28T16:50:57.736Z,100120.03
2022-07-28T16:54:00.428Z,100121.38
2022-07-28T16:57:03.872Z,100120.38
2022-07-28T17:00:10.190Z,100130.56
2022-07-28T17:03:12.897Z,100125.09
2022-07-28T17:06:15.837Z,100126.47
2022-07-28T17:09:18.414Z,100126.31
2022-07-28T17:12:21.288Z,100122.03
2022-07-28T17:15:24.015Z,100122.47
2022-07-28T17:18:26.864Z,100121.72
2022-07-28T17:21:29.420Z,100121.59
2022-07-28T17:24:32.164Z,100123.91
2022-07-28T17:27:38.140Z,100125.88
2022-07-28T17:30:42.109Z,100118.31
2022-07-28T17:33:44.671Z,100122.78
2022-07-28T17:36:50.469Z,100127.66
2022-07-28T17:39:52.992Z,100115.81
2022-07-28T17:42:55.779Z,100119.25
2022-07-28T17:45:58.399Z,100121.06
2022-07-28T17:49:05.824Z,100122.84
2022-07-28T17:52:08.729Z,100124.31
2022-07-28T17:55:31.030Z,100127.34
2022-07-28T17:58:34.185Z,100124.47
2022-07-28T18:01:38.275Z,100126.75
2022-07-28T18:04:43.808Z,100128.19
2022-07-28T18:07:50.111Z,100122.81
2022-07-28T18:10:54.344Z,100125.91
2022-07-28T18:14:03.944Z,100131.97
2022-07-28T18:17:07.965Z,100132.56
2022-07-28T18:20:11.822Z,100139.16
2022-07-28T18:23:14.938Z,100133.66
2022-07-28T18:26:17.466Z,100138.81
2022-07-28T18:29:21.424Z,100140.09
2022-07-28T18:32:24.329Z,100141.00
2022-07-28T18:35:28.047Z,100149.28
2022-07-28T18:38:30.661Z,100151.22
2022-07-28T18:41:34.631Z,100161.09
2022-07-28T18:44:49.918Z,100154.28
2022-07-28T18:47:54.240Z,100164.38
2022-07-28T18:50:56.752Z,100162.28
2022-07-28T18:53:59.905Z,100168.41
2022-07-28T18:57:02.565Z,100171.41
2022-07-28T19:00:09.247Z,100176.59
2022-07-28T19:03:11.911Z,100179.06
2022-07-28T19:06:14.784Z,100177.00
2022-07-28T19:09:17.674Z,100185.69
2022-07-28T19:12:20.465Z,100184.03
2022-07-28T19:15:23.065Z,100189.66
2022-07-28T19:18:25.961Z,100186.97
2022-07-28T19:21:28.409Z,100191.03
2022-07-28T19:24:32.845Z,100185.69
2022-07-28T19:27:36.440Z,100188.97
2022-07-28T19:30:39.588Z,100198.22
2022-07-28T19:33:43.674Z,100191.72
2022-07-28T19:36:48.731Z,100203.22
2022-07-28T19:39:51.415Z,100192.13
2022-07-28T19:42:54.245Z,100211.72
2022-07-28T19:46:00.076Z,100204.38
2022-07-28T19:49:04.700Z,100208.19
2022-07-28T19:52:07.381Z,100208.75
2022-07-28T19:55:10.194Z,100213.66
2022-07-28T19:58:13.125Z,100209.03
2022-07-28T20:01:17.032Z,100221.78
2022-07-28T20:04:20.121Z,100229.38
2022-07-28T20:07:23.911Z,100224.75
2022-07-28T20:10:27.066Z,100225.78
2022-07-28T20:13:29.612Z,100230.91
2022-07-28T20:16:32.496Z,100231.41
2022-07-28T20:19:35.225Z,100232.75
2022-07-28T20:22:38.100Z,100246.84
2022-07-28T20:25:41.715Z,100237.00
2022-07-28T20:28:44.474Z,100244.03
2022-07-28T20:31:47.048Z,100236.38
2022-07-28T20:34:51.462Z,100241.28
2022-07-28T20:37:54.115Z,100250.53
2022-07-28T20:40:56.870Z,100247.69
2022-07-28T20:44:27.337Z,100249.88
2022-07-28T20:47:23.340Z,100253.03
2022-07-28T20:50:26.339Z,100254.31
2022-07-28T20:53:29.123Z,100248.09
2022-07-28T20:56:31.686Z,100254.19
2022-07-28T20:59:34.531Z,100251.97
2022-07-28T21:02:37.252Z,100247.88
2022-07-28T21:05:40.769Z,100248.41
2022-07-28T21:08:45.085Z,100256.22
2022-07-28T21:11:48.123Z,100251.31
2022-07-28T21:14:50.601Z,100258.84
2022-07-28T21:17:56.192Z,100259.25
2022-07-28T21:20:58.691Z,100262.28
2022-07-28T21:24:01.461Z,100260.03
2022-07-28T21:27:04.048Z,100272.28
2022-07-28T21:30:07.273Z,100275.53
2022-07-28T21:33:10.938Z,100278.47
2022-07-28T21:36:13.902Z,100276.62
2022-07-28T21:39:16.452Z,100278.75
2022-07-28T21:42:19.199Z,100281.94
2022-07-28T21:45:21.652Z,100289.16
2022-07-28T21:48:25.087Z,100287.72
2022-07-28T21:51:29.262Z,100283.53
2022-07-28T21:54:32.211Z,100283.47
2022-07-28T21:57:35.057Z,100293.09
2022-07-28T22:00:37.989Z,100304.19
2022-07-28T22:03:41.477Z,100315.03
2022-07-28T22:06:46.551Z,100309.88
2022-07-28T22:09:49.719Z,100312.00
2022-07-28T22:12:52.354Z,100329.72
2022-07-28T22:15:55.295Z,100323.03
2022-07-28T22:18:57.750Z,100311.44
2022-07-28T22:22:00.768Z,100326.66
2022-07-28T22:25:05.054Z,100322.25
2022-07-28T22:28:08.674Z,100326.78
2022-07-28T22:31:11.242Z,100329.16
2022-07-28T22:34:14.430Z,100323.91
2022-07-28T22:37:17.084Z,100320.38
2022-07-28T22:40:20.221Z,100328.28
2022-07-28T22:43:23.179Z,100324.38
2022-07-28T22:46:26.144Z,100328.78
2022-07-28T22:49:28.730Z,100330.06
2022-07-28T22:52:31.845Z,100326.44
2022-07-28T22:58:54.514Z,100330.72
2022-07-28T23:01:58.865Z,100331.91
2022-07-28T23:05:03.207Z,100330.84
2022-07-28T23:08:06.410Z,100331.22
2022-07-28T23:11:09.287Z,100315.19
2022-07-28T23:14:11.955Z,100326.19
2022-07-28T23:17:15.675Z,100321.16
2022-07-28T23:20:21.520Z,100322.72
2022-07-28T23:23:29.169Z,100328.53
2022-07-28T23:26:32.367Z,100328.81
2022-07-28T23:29:35.460Z,100333.94
2022-07-28T23:32:38.121Z,100336.09
2022-07-28T23:35:41.596Z,100334.53
2022-07-28T23:38:44.286Z,100336.16
2022-07-28T23:41:47.506Z,100333.78
2022-07-28T23:44:50.090Z,100341.22
2022-07-28T23:47:58.384Z,100337.47
2022-07-28T23:51:01.979Z,100338.72
2022-07-28T23:54:04.942Z,100339.69
2022-07-28T23:57:07.480Z,100343.03
